sensor_id;sensor_type;location;lat;lon;timestamp;P1;durP1;ratioP1;P2;durP2;ratioP2
19004;SDS011;9635;52.078;8.648;2023-09-30T00:01:46;16.02;;;4.88;;
19004;SDS011;9635;52.078;8.648;2023-09-30T00:06:50;18.30;;;4.95;;
19004;SDS011;9635;52.078;8.648;2023-09-30T00:11:53;17.10;;;4.75;;
19004;SDS011;9635;52.078;8.648;2023-09-30T00:16:57;20.02;;;5.65;;
19004;SDS011;9635;52.078;8.648;2023-09-30T00:22:02;19.27;;;5.30;;
19004;SDS011;9635;52.078;8.648;2023-09-30T00:27:06;22.52;;;6.78;;
19004;SDS011;9635;52.078;8.648;2023-09-30T00:32:09;14.95;;;4.53;;
19004;SDS011;9635;52.078;8.648;2023-09-30T00:37:13;12.57;;;5.22;;
19004;SDS011;9635;52.078;8.648;2023-09-30T00:42:16;24.45;;;4.75;;
19004;SDS011;9635;52.078;8.648;2023-09-30T00:47:19;18.80;;;4.95;;
19004;SDS011;9635;52.078;8.648;2023-09-30T00:52:24;20.33;;;4.95;;
19004;SDS011;9635;52.078;8.648;2023-09-30T00:57:27;18.90;;;4.47;;
19004;SDS011;9635;52.078;8.648;2023-09-30T01:02:30;18.33;;;4.60;;
19004;SDS011;9635;52.078;8.648;2023-09-30T01:07:34;17.40;;;5.38;;
19004;SDS011;9635;52.078;8.648;2023-09-30T01:12:38;17.65;;;5.25;;
19004;SDS011;9635;52.078;8.648;2023-09-30T01:17:41;16.27;;;4.90;;
19004;SDS011;9635;52.078;8.648;2023-09-30T01:22:45;16.50;;;4.22;;
19004;SDS011;9635;52.078;8.648;2023-09-30T01:27:49;15.07;;;4.50;;
19004;SDS011;9635;52.078;8.648;2023-09-30T01:32:52;16.55;;;4.32;;
19004;SDS011;9635;52.078;8.648;2023-09-30T01:37:58;17.25;;;4.82;;
19004;SDS011;9635;52.078;8.648;2023-09-30T01:43:01;19.08;;;5.00;;
19004;SDS011;9635;52.078;8.648;2023-09-30T01:48:04;16.60;;;4.32;;
19004;SDS011;9635;52.078;8.648;2023-09-30T01:53:09;21.45;;;4.68;;
19004;SDS011;9635;52.078;8.648;2023-09-30T01:58:11;18.17;;;4.63;;
19004;SDS011;9635;52.078;8.648;2023-09-30T02:03:14;20.10;;;4.05;;
19004;SDS011;9635;52.078;8.648;2023-09-30T02:08:20;16.05;;;4.72;;
19004;SDS011;9635;52.078;8.648;2023-09-30T02:13:23;21.67;;;4.22;;
19004;SDS011;9635;52.078;8.648;2023-09-30T02:18:26;16.17;;;5.05;;
19004;SDS011;9635;52.078;8.648;2023-09-30T02:23:31;15.00;;;4.00;;
19004;SDS011;9635;52.078;8.648;2023-09-30T02:28:34;16.17;;;4.57;;
19004;SDS011;9635;52.078;8.648;2023-09-30T02:33:38;13.18;;;4.13;;
19004;SDS011;9635;52.078;8.648;2023-09-30T02:38:43;17.13;;;4.72;;
19004;SDS011;9635;52.078;8.648;2023-09-30T02:43:47;15.68;;;5.22;;
19004;SDS011;9635;52.078;8.648;2023-09-30T02:48:51;19.90;;;5.13;;
19004;SDS011;9635;52.078;8.648;2023-09-30T02:53:56;16.17;;;4.60;;
19004;SDS011;9635;52.078;8.648;2023-09-30T02:58:59;19.63;;;5.00;;
19004;SDS011;9635;52.078;8.648;2023-09-30T03:04:03;17.80;;;4.65;;
19004;SDS011;9635;52.078;8.648;2023-09-30T03:09:10;26.60;;;4.30;;
19004;SDS011;9635;52.078;8.648;2023-09-30T03:14:16;15.10;;;4.38;;
19004;SDS011;9635;52.078;8.648;2023-09-30T03:19:19;13.68;;;4.32;;
19004;SDS011;9635;52.078;8.648;2023-09-30T03:24:23;23.70;;;4.90;;
19004;SDS011;9635;52.078;8.648;2023-09-30T03:29:27;18.92;;;4.20;;
19004;SDS011;9635;52.078;8.648;2023-09-30T03:34:29;17.92;;;4.72;;
19004;SDS011;9635;52.078;8.648;2023-09-30T03:39:34;14.73;;;4.43;;
19004;SDS011;9635;52.078;8.648;2023-09-30T03:44:37;19.45;;;4.80;;
19004;SDS011;9635;52.078;8.648;2023-09-30T03:49:40;22.15;;;5.13;;
19004;SDS011;9635;52.078;8.648;2023-09-30T03:54:44;24.08;;;4.55;;
19004;SDS011;9635;52.078;8.648;2023-09-30T03:59:47;17.73;;;5.05;;
19004;SDS011;9635;52.078;8.648;2023-09-30T04:04:50;19.42;;;4.90;;
19004;SDS011;9635;52.078;8.648;2023-09-30T04:09:56;18.58;;;5.03;;
19004;SDS011;9635;52.078;8.648;2023-09-30T04:15:02;23.30;;;5.38;;
19004;SDS011;9635;52.078;8.648;2023-09-30T04:20:07;22.45;;;5.00;;
19004;SDS011;9635;52.078;8.648;2023-09-30T04:25:13;22.80;;;4.88;;
19004;SDS011;9635;52.078;8.648;2023-09-30T04:30:17;23.38;;;6.57;;
19004;SDS011;9635;52.078;8.648;2023-09-30T04:35:21;19.45;;;6.35;;
19004;SDS011;9635;52.078;8.648;2023-09-30T04:40:25;22.52;;;5.55;;
19004;SDS011;9635;52.078;8.648;2023-09-30T04:45:28;21.73;;;6.38;;
19004;SDS011;9635;52.078;8.648;2023-09-30T04:50:31;18.13;;;5.60;;
19004;SDS011;9635;52.078;8.648;2023-09-30T04:55:35;20.55;;;6.63;;
19004;SDS011;9635;52.078;8.648;2023-09-30T05:00:39;18.02;;;4.78;;
19004;SDS011;9635;52.078;8.648;2023-09-30T05:05:41;22.73;;;6.07;;
19004;SDS011;9635;52.078;8.648;2023-09-30T05:10:46;23.88;;;5.97;;
19004;SDS011;9635;52.078;8.648;2023-09-30T05:15:49;21.30;;;6.38;;
19004;SDS011;9635;52.078;8.648;2023-09-30T05:20:52;21.25;;;5.88;;
19004;SDS011;9635;52.078;8.648;2023-09-30T05:25:57;18.77;;;6.57;;
19004;SDS011;9635;52.078;8.648;2023-09-30T05:31:00;18.88;;;6.60;;
19004;SDS011;9635;52.078;8.648;2023-09-30T05:36:04;21.23;;;7.03;;
19004;SDS011;9635;52.078;8.648;2023-09-30T05:41:08;21.50;;;6.80;;
19004;SDS011;9635;52.078;8.648;2023-09-30T05:46:14;22.90;;;7.05;;
19004;SDS011;9635;52.078;8.648;2023-09-30T05:51:17;21.73;;;7.95;;
19004;SDS011;9635;52.078;8.648;2023-09-30T05:56:22;27.15;;;7.03;;
19004;SDS011;9635;52.078;8.648;2023-09-30T06:01:25;23.65;;;6.93;;
19004;SDS011;9635;52.078;8.648;2023-09-30T06:06:29;23.00;;;7.10;;
19004;SDS011;9635;52.078;8.648;2023-09-30T06:11:33;22.67;;;7.38;;
19004;SDS011;9635;52.078;8.648;2023-09-30T06:16:37;21.27;;;7.40;;
19004;SDS011;9635;52.078;8.648;2023-09-30T06:21:40;19.05;;;7.28;;
19004;SDS011;9635;52.078;8.648;2023-09-30T06:26:45;26.25;;;7.32;;
19004;SDS011;9635;52.078;8.648;2023-09-30T06:31:50;25.58;;;8.52;;
19004;SDS011;9635;52.078;8.648;2023-09-30T06:36:52;22.85;;;7.10;;
19004;SDS011;9635;52.078;8.648;2023-09-30T06:41:57;19.02;;;7.28;;
19004;SDS011;9635;52.078;8.648;2023-09-30T06:46:59;19.38;;;7.20;;
19004;SDS011;9635;52.078;8.648;2023-09-30T06:52:02;19.80;;;6.82;;
19004;SDS011;9635;52.078;8.648;2023-09-30T06:57:07;21.80;;;6.45;;
19004;SDS011;9635;52.078;8.648;2023-09-30T07:02:11;19.25;;;7.32;;
19004;SDS011;9635;52.078;8.648;2023-09-30T07:07:14;20.88;;;6.22;;
19004;SDS011;9635;52.078;8.648;2023-09-30T07:12:19;22.15;;;7.65;;
19004;SDS011;9635;52.078;8.648;2023-09-30T07:17:22;23.63;;;8.07;;
19004;SDS011;9635;52.078;8.648;2023-09-30T07:22:25;21.33;;;7.50;;
19004;SDS011;9635;52.078;8.648;2023-09-30T07:27:49;21.52;;;7.38;;
19004;SDS011;9635;52.078;8.648;2023-09-30T07:32:53;17.60;;;7.07;;
19004;SDS011;9635;52.078;8.648;2023-09-30T07:37:58;20.20;;;8.90;;
19004;SDS011;9635;52.078;8.648;2023-09-30T07:43:03;18.35;;;8.20;;
19004;SDS011;9635;52.078;8.648;2023-09-30T07:48:06;18.15;;;7.63;;
19004;SDS011;9635;52.078;8.648;2023-09-30T07:53:11;22.02;;;8.38;;
19004;SDS011;9635;52.078;8.648;2023-09-30T07:58:15;18.30;;;8.43;;
19004;SDS011;9635;52.078;8.648;2023-09-30T08:03:18;21.95;;;8.45;;
19004;SDS011;9635;52.078;8.648;2023-09-30T08:08:22;20.17;;;8.82;;
19004;SDS011;9635;52.078;8.648;2023-09-30T08:13:26;18.35;;;7.38;;
19004;SDS011;9635;52.078;8.648;2023-09-30T08:18:30;18.80;;;7.57;;
19004;SDS011;9635;52.078;8.648;2023-09-30T08:23:34;17.95;;;7.65;;
19004;SDS011;9635;52.078;8.648;2023-09-30T08:28:38;13.32;;;6.88;;
19004;SDS011;9635;52.078;8.648;2023-09-30T08:33:41;14.93;;;5.60;;
19004;SDS011;9635;52.078;8.648;2023-09-30T08:38:46;15.65;;;6.22;;
19004;SDS011;9635;52.078;8.648;2023-09-30T08:43:50;17.25;;;6.95;;
19004;SDS011;9635;52.078;8.648;2023-09-30T08:48:58;11.07;;;5.57;;
19004;SDS011;9635;52.078;8.648;2023-09-30T08:54:04;16.10;;;6.85;;
19004;SDS011;9635;52.078;8.648;2023-09-30T08:59:11;16.92;;;6.22;;
19004;SDS011;9635;52.078;8.648;2023-09-30T09:04:14;11.50;;;6.50;;
19004;SDS011;9635;52.078;8.648;2023-09-30T09:09:18;12.15;;;6.43;;
19004;SDS011;9635;52.078;8.648;2023-09-30T09:14:37;12.65;;;6.00;;
19004;SDS011;9635;52.078;8.648;2023-09-30T09:19:41;11.90;;;6.60;;
19004;SDS011;9635;52.078;8.648;2023-09-30T09:24:44;13.80;;;7.07;;
19004;SDS011;9635;52.078;8.648;2023-09-30T09:29:49;17.08;;;8.20;;
19004;SDS011;9635;52.078;8.648;2023-09-30T09:34:59;15.20;;;6.80;;
19004;SDS011;9635;52.078;8.648;2023-09-30T09:40:05;14.82;;;7.50;;
19004;SDS011;9635;52.078;8.648;2023-09-30T09:45:10;15.75;;;6.82;;
19004;SDS011;9635;52.078;8.648;2023-09-30T09:50:14;16.05;;;6.68;;
19004;SDS011;9635;52.078;8.648;2023-09-30T09:55:19;15.55;;;7.07;;
19004;SDS011;9635;52.078;8.648;2023-09-30T10:00:25;16.50;;;7.18;;
19004;SDS011;9635;52.078;8.648;2023-09-30T10:05:31;11.70;;;6.78;;
19004;SDS011;9635;52.078;8.648;2023-09-30T10:10:35;18.88;;;8.00;;
19004;SDS011;9635;52.078;8.648;2023-09-30T10:15:41;14.82;;;7.03;;
19004;SDS011;9635;52.078;8.648;2023-09-30T10:20:45;10.52;;;5.40;;
19004;SDS011;9635;52.078;8.648;2023-09-30T10:25:51;16.58;;;5.97;;
19004;SDS011;9635;52.078;8.648;2023-09-30T10:31:10;14.52;;;5.65;;
19004;SDS011;9635;52.078;8.648;2023-09-30T10:36:15;13.32;;;5.25;;
19004;SDS011;9635;52.078;8.648;2023-09-30T10:46:55;14.70;;;4.75;;
19004;SDS011;9635;52.078;8.648;2023-09-30T10:52:01;13.77;;;5.10;;
19004;SDS011;9635;52.078;8.648;2023-09-30T10:57:05;8.02;;;3.38;;
19004;SDS011;9635;52.078;8.648;2023-09-30T11:02:18;8.57;;;3.90;;
19004;SDS011;9635;52.078;8.648;2023-09-30T11:07:22;8.60;;;3.95;;
19004;SDS011;9635;52.078;8.648;2023-09-30T11:12:26;9.45;;;3.85;;
19004;SDS011;9635;52.078;8.648;2023-09-30T11:17:31;8.45;;;3.42;;
19004;SDS011;9635;52.078;8.648;2023-09-30T11:22:34;7.70;;;3.00;;
19004;SDS011;9635;52.078;8.648;2023-09-30T11:27:37;9.07;;;3.58;;
19004;SDS011;9635;52.078;8.648;2023-09-30T11:32:43;8.52;;;3.20;;
19004;SDS011;9635;52.078;8.648;2023-09-30T11:37:46;8.60;;;3.58;;
19004;SDS011;9635;52.078;8.648;2023-09-30T11:43:08;9.32;;;3.75;;
19004;SDS011;9635;52.078;8.648;2023-09-30T11:48:19;13.50;;;3.55;;
19004;SDS011;9635;52.078;8.648;2023-09-30T11:53:22;8.63;;;3.22;;
19004;SDS011;9635;52.078;8.648;2023-09-30T11:58:27;7.38;;;3.35;;
19004;SDS011;9635;52.078;8.648;2023-09-30T12:03:31;7.03;;;2.85;;
19004;SDS011;9635;52.078;8.648;2023-09-30T12:08:38;12.50;;;3.13;;
19004;SDS011;9635;52.078;8.648;2023-09-30T12:13:41;9.68;;;3.05;;
19004;SDS011;9635;52.078;8.648;2023-09-30T12:18:47;8.45;;;2.90;;
19004;SDS011;9635;52.078;8.648;2023-09-30T12:23:50;5.82;;;2.50;;
19004;SDS011;9635;52.078;8.648;2023-09-30T12:28:53;5.70;;;2.80;;
19004;SDS011;9635;52.078;8.648;2023-09-30T12:33:57;6.78;;;2.78;;
19004;SDS011;9635;52.078;8.648;2023-09-30T12:39:01;10.15;;;3.28;;
19004;SDS011;9635;52.078;8.648;2023-09-30T12:44:11;9.77;;;3.40;;
19004;SDS011;9635;52.078;8.648;2023-09-30T12:49:16;10.85;;;3.47;;
19004;SDS011;9635;52.078;8.648;2023-09-30T12:54:20;9.45;;;2.78;;
19004;SDS011;9635;52.078;8.648;2023-09-30T12:59:23;7.93;;;3.17;;
19004;SDS011;9635;52.078;8.648;2023-09-30T13:04:28;6.82;;;2.63;;
19004;SDS011;9635;52.078;8.648;2023-09-30T13:09:31;6.20;;;2.80;;
19004;SDS011;9635;52.078;8.648;2023-09-30T13:14:34;6.85;;;2.40;;
19004;SDS011;9635;52.078;8.648;2023-09-30T13:19:39;10.15;;;3.08;;
19004;SDS011;9635;52.078;8.648;2023-09-30T13:24:42;7.38;;;2.30;;
19004;SDS011;9635;52.078;8.648;2023-09-30T13:29:46;6.00;;;2.88;;
19004;SDS011;9635;52.078;8.648;2023-09-30T13:34:50;9.90;;;2.60;;
19004;SDS011;9635;52.078;8.648;2023-09-30T13:39:53;6.05;;;2.67;;
19004;SDS011;9635;52.078;8.648;2023-09-30T13:44:56;5.50;;;2.40;;
19004;SDS011;9635;52.078;8.648;2023-09-30T13:50:01;6.88;;;2.80;;
19004;SDS011;9635;52.078;8.648;2023-09-30T13:55:05;5.78;;;2.20;;
19004;SDS011;9635;52.078;8.648;2023-09-30T14:00:10;8.18;;;2.40;;
19004;SDS011;9635;52.078;8.648;2023-09-30T14:05:16;6.03;;;2.67;;
19004;SDS011;9635;52.078;8.648;2023-09-30T14:10:19;6.60;;;2.50;;
19004;SDS011;9635;52.078;8.648;2023-09-30T14:15:21;5.63;;;2.55;;
19004;SDS011;9635;52.078;8.648;2023-09-30T14:20:26;5.40;;;2.50;;
19004;SDS011;9635;52.078;8.648;2023-09-30T14:25:28;8.13;;;2.72;;
19004;SDS011;9635;52.078;8.648;2023-09-30T14:30:32;5.43;;;2.00;;
19004;SDS011;9635;52.078;8.648;2023-09-30T14:35:36;6.53;;;2.63;;
19004;SDS011;9635;52.078;8.648;2023-09-30T14:40:40;5.43;;;2.50;;
19004;SDS011;9635;52.078;8.648;2023-09-30T14:45:43;8.38;;;2.83;;
19004;SDS011;9635;52.078;8.648;2023-09-30T14:50:49;6.38;;;2.47;;
19004;SDS011;9635;52.078;8.648;2023-09-30T14:55:52;5.00;;;2.40;;
19004;SDS011;9635;52.078;8.648;2023-09-30T15:00:55;6.78;;;2.67;;
19004;SDS011;9635;52.078;8.648;2023-09-30T15:05:59;5.20;;;2.58;;
19004;SDS011;9635;52.078;8.648;2023-09-30T15:11:03;4.85;;;2.58;;
19004;SDS011;9635;52.078;8.648;2023-09-30T15:16:06;6.28;;;2.30;;
19004;SDS011;9635;52.078;8.648;2023-09-30T15:21:19;4.87;;;2.43;;
19004;SDS011;9635;52.078;8.648;2023-09-30T15:26:22;6.35;;;2.03;;
19004;SDS011;9635;52.078;8.648;2023-09-30T15:31:26;9.20;;;2.90;;
19004;SDS011;9635;52.078;8.648;2023-09-30T15:36:32;5.97;;;2.50;;
19004;SDS011;9635;52.078;8.648;2023-09-30T15:41:35;5.22;;;2.60;;
19004;SDS011;9635;52.078;8.648;2023-09-30T15:46:39;8.45;;;3.40;;
19004;SDS011;9635;52.078;8.648;2023-09-30T15:51:43;7.57;;;2.90;;
19004;SDS011;9635;52.078;8.648;2023-09-30T15:56:46;6.53;;;2.50;;
19004;SDS011;9635;52.078;8.648;2023-09-30T16:01:56;5.55;;;2.92;;
19004;SDS011;9635;52.078;8.648;2023-09-30T16:07:01;8.23;;;3.33;;
19004;SDS011;9635;52.078;8.648;2023-09-30T16:12:04;9.57;;;3.10;;
19004;SDS011;9635;52.078;8.648;2023-09-30T16:17:07;7.03;;;2.60;;
19004;SDS011;9635;52.078;8.648;2023-09-30T16:22:12;6.28;;;2.90;;
19004;SDS011;9635;52.078;8.648;2023-09-30T16:27:15;8.55;;;3.55;;
19004;SDS011;9635;52.078;8.648;2023-09-30T16:32:18;7.53;;;2.90;;
19004;SDS011;9635;52.078;8.648;2023-09-30T16:37:22;7.72;;;3.70;;
19004;SDS011;9635;52.078;8.648;2023-09-30T16:42:25;6.22;;;3.28;;
19004;SDS011;9635;52.078;8.648;2023-09-30T16:47:30;8.60;;;4.00;;
19004;SDS011;9635;52.078;8.648;2023-09-30T16:52:35;9.18;;;4.40;;
19004;SDS011;9635;52.078;8.648;2023-09-30T16:57:38;11.00;;;4.72;;
19004;SDS011;9635;52.078;8.648;2023-09-30T17:02:42;9.05;;;3.80;;
19004;SDS011;9635;52.078;8.648;2023-09-30T17:07:47;8.25;;;4.85;;
19004;SDS011;9635;52.078;8.648;2023-09-30T17:12:50;12.35;;;5.00;;
19004;SDS011;9635;52.078;8.648;2023-09-30T17:17:53;6.57;;;4.20;;
19004;SDS011;9635;52.078;8.648;2023-09-30T17:22:57;11.95;;;4.38;;
19004;SDS011;9635;52.078;8.648;2023-09-30T17:28:01;10.15;;;4.68;;
19004;SDS011;9635;52.078;8.648;2023-09-30T17:33:04;8.25;;;5.25;;
19004;SDS011;9635;52.078;8.648;2023-09-30T17:38:08;9.85;;;4.35;;
19004;SDS011;9635;52.078;8.648;2023-09-30T17:43:11;9.23;;;4.00;;
19004;SDS011;9635;52.078;8.648;2023-09-30T17:48:14;9.40;;;3.78;;
19004;SDS011;9635;52.078;8.648;2023-09-30T17:53:19;8.50;;;3.95;;
19004;SDS011;9635;52.078;8.648;2023-09-30T17:58:22;6.15;;;3.47;;
19004;SDS011;9635;52.078;8.648;2023-09-30T18:03:25;7.80;;;3.67;;
19004;SDS011;9635;52.078;8.648;2023-09-30T18:08:30;11.50;;;3.72;;
19004;SDS011;9635;52.078;8.648;2023-09-30T18:13:33;7.78;;;3.38;;
19004;SDS011;9635;52.078;8.648;2023-09-30T18:18:36;6.63;;;3.50;;
19004;SDS011;9635;52.078;8.648;2023-09-30T18:23:41;9.10;;;3.85;;
19004;SDS011;9635;52.078;8.648;2023-09-30T18:28:44;6.72;;;3.50;;
19004;SDS011;9635;52.078;8.648;2023-09-30T18:33:47;5.85;;;3.38;;
19004;SDS011;9635;52.078;8.648;2023-09-30T18:38:52;10.65;;;3.33;;
19004;SDS011;9635;52.078;8.648;2023-09-30T18:43:55;9.32;;;3.40;;
19004;SDS011;9635;52.078;8.648;2023-09-30T18:48:58;9.80;;;4.05;;
19004;SDS011;9635;52.078;8.648;2023-09-30T18:54:03;7.07;;;3.45;;
19004;SDS011;9635;52.078;8.648;2023-09-30T18:59:12;7.82;;;3.67;;
19004;SDS011;9635;52.078;8.648;2023-09-30T19:04:21;10.98;;;4.25;;
19004;SDS011;9635;52.078;8.648;2023-09-30T19:09:26;9.05;;;4.05;;
19004;SDS011;9635;52.078;8.648;2023-09-30T19:14:29;10.45;;;4.80;;
19004;SDS011;9635;52.078;8.648;2023-09-30T19:19:32;7.15;;;3.72;;
19004;SDS011;9635;52.078;8.648;2023-09-30T19:24:36;9.20;;;4.45;;
19004;SDS011;9635;52.078;8.648;2023-09-30T19:29:39;10.77;;;4.55;;
19004;SDS011;9635;52.078;8.648;2023-09-30T19:34:42;9.55;;;5.78;;
19004;SDS011;9635;52.078;8.648;2023-09-30T19:39:47;8.32;;;4.72;;
19004;SDS011;9635;52.078;8.648;2023-09-30T19:44:49;12.65;;;5.32;;
19004;SDS011;9635;52.078;8.648;2023-09-30T19:49:52;13.43;;;5.00;;
19004;SDS011;9635;52.078;8.648;2023-09-30T19:54:57;9.10;;;4.78;;
19004;SDS011;9635;52.078;8.648;2023-09-30T20:00:00;9.65;;;4.60;;
19004;SDS011;9635;52.078;8.648;2023-09-30T20:05:05;8.57;;;4.38;;
19004;SDS011;9635;52.078;8.648;2023-09-30T20:10:11;12.73;;;4.88;;
19004;SDS011;9635;52.078;8.648;2023-09-30T20:15:14;9.35;;;4.55;;
19004;SDS011;9635;52.078;8.648;2023-09-30T20:20:17;9.10;;;4.85;;
19004;SDS011;9635;52.078;8.648;2023-09-30T20:25:22;8.82;;;5.57;;
19004;SDS011;9635;52.078;8.648;2023-09-30T20:30:26;9.65;;;5.00;;
19004;SDS011;9635;52.078;8.648;2023-09-30T20:35:29;8.20;;;4.35;;
19004;SDS011;9635;52.078;8.648;2023-09-30T20:40:39;7.93;;;4.53;;
19004;SDS011;9635;52.078;8.648;2023-09-30T20:45:43;7.32;;;4.50;;
19004;SDS011;9635;52.078;8.648;2023-09-30T20:50:46;10.30;;;5.25;;
19004;SDS011;9635;52.078;8.648;2023-09-30T20:55:50;10.85;;;4.80;;
19004;SDS011;9635;52.078;8.648;2023-09-30T21:00:53;9.07;;;4.80;;
19004;SDS011;9635;52.078;8.648;2023-09-30T21:06:01;8.27;;;5.03;;
19004;SDS011;9635;52.078;8.648;2023-09-30T21:11:06;8.07;;;4.88;;
19004;SDS011;9635;52.078;8.648;2023-09-30T21:16:10;10.40;;;5.15;;
19004;SDS011;9635;52.078;8.648;2023-09-30T21:21:13;12.35;;;5.57;;
19004;SDS011;9635;52.078;8.648;2023-09-30T21:26:17;13.75;;;5.57;;
19004;SDS011;9635;52.078;8.648;2023-09-30T21:31:21;13.13;;;5.55;;
19004;SDS011;9635;52.078;8.648;2023-09-30T21:36:26;10.50;;;5.20;;
19004;SDS011;9635;52.078;8.648;2023-09-30T21:41:30;8.52;;;4.53;;
19004;SDS011;9635;52.078;8.648;2023-09-30T21:46:36;11.93;;;4.82;;
19004;SDS011;9635;52.078;8.648;2023-09-30T21:51:39;10.40;;;4.82;;
19004;SDS011;9635;52.078;8.648;2023-09-30T21:56:44;10.30;;;5.43;;
19004;SDS011;9635;52.078;8.648;2023-09-30T22:01:48;10.77;;;5.22;;
19004;SDS011;9635;52.078;8.648;2023-09-30T22:06:51;11.40;;;6.18;;
19004;SDS011;9635;52.078;8.648;2023-09-30T22:11:55;10.95;;;5.32;;
19004;SDS011;9635;52.078;8.648;2023-09-30T22:16:58;10.55;;;5.50;;
19004;SDS011;9635;52.078;8.648;2023-09-30T22:22:02;12.25;;;5.80;;
19004;SDS011;9635;52.078;8.648;2023-09-30T22:27:14;8.38;;;5.40;;
19004;SDS011;9635;52.078;8.648;2023-09-30T22:32:17;12.32;;;5.72;;
19004;SDS011;9635;52.078;8.648;2023-09-30T22:37:20;11.65;;;5.80;;
19004;SDS011;9635;52.078;8.648;2023-09-30T22:42:24;8.43;;;5.45;;
19004;SDS011;9635;52.078;8.648;2023-09-30T22:47:27;13.40;;;5.78;;
19004;SDS011;9635;52.078;8.648;2023-09-30T22:52:30;12.93;;;5.15;;
19004;SDS011;9635;52.078;8.648;2023-09-30T22:57:36;9.90;;;5.45;;
19004;SDS011;9635;52.078;8.648;2023-09-30T23:02:39;14.55;;;6.07;;
19004;SDS011;9635;52.078;8.648;2023-09-30T23:07:43;12.43;;;6.13;;
19004;SDS011;9635;52.078;8.648;2023-09-30T23:12:48;11.15;;;6.50;;
19004;SDS011;9635;52.078;8.648;2023-09-30T23:17:51;12.93;;;6.88;;
19004;SDS011;9635;52.078;8.648;2023-09-30T23:22:54;13.75;;;6.70;;
19004;SDS011;9635;52.078;8.648;2023-09-30T23:28:01;12.27;;;6.07;;
19004;SDS011;9635;52.078;8.648;2023-09-30T23:33:08;11.38;;;5.95;;
19004;SDS011;9635;52.078;8.648;2023-09-30T23:38:11;13.68;;;6.97;;
19004;SDS011;9635;52.078;8.648;2023-09-30T23:43:15;11.85;;;6.63;;
19004;SDS011;9635;52.078;8.648;2023-09-30T23:48:19;15.23;;;6.70;;
19004;SDS011;9635;52.078;8.648;2023-09-30T23:53:23;14.63;;;6.95;;
19004;SDS011;9635;52.078;8.648;2023-09-30T23:58:27;10.20;;;5.85;;
